Time;durP1;ratioP1;P1;durP2;ratioP2;P2;SDS_P1;SDS_P2;PMS_P1;PMS_P2;Temp;Humidity;BMP_temperature;BMP_pressure;BME280_temperature;BME280_humidity;BME280_pressure;Samples;Min_cycle;Max_cycle;Signal;HPM_P1;HPM_P2
2022/05/20 00:26:01;;;;;;;5.60;2.10;;;19.30;91.20;;;;;;8146614;28;20047;-60
2022/05/20 00:31:09;;;;;;;2.55;2.00;;;19.20;91.20;;;;;;10535810;28;20472;-60
2022/05/20 00:36:09;;;;;;;3.35;2.00;;;19.20;91.20;;;;;;10535829;28;20446;-65
2022/05/20 00:41:10;;;;;;;4.00;2.30;;;19.20;91.20;;;;;;10536037;28;20028;-61
2022/05/20 00:46:15;;;;;;;3.17;1.98;;;19.20;91.20;;;;;;10536836;28;20503;-60
2022/05/20 00:51:26;;;;;;;3.17;1.98;;;19.20;91.20;;;;;;10536757;28;20397;-62
2022/05/20 00:56:34;;;;;;;4.47;2.03;;;19.10;91.10;;;;;;10536411;28;20044;-64
2022/05/20 01:01:36;;;;;;;4.97;2.13;;;19.10;91.10;;;;;;10536134;28;20058;-61
2022/05/20 01:06:36;;;;;;;3.88;2.20;;;19.10;91.10;;;;;;10536065;28;20058;-62
2022/05/20 01:11:39;;;;;;;2.85;2.30;;;19.10;91.10;;;;;;10517906;28;20020;-62
2022/05/20 01:16:40;;;;;;;2.40;2.10;;;19.00;91.10;;;;;;10535804;28;20040;-59
2022/05/20 01:21:40;;;;;;;4.50;2.55;;;19.00;91.10;;;;;;10535893;28;20040;-60
2022/05/20 01:26:41;;;;;;;5.65;2.40;;;19.00;91.10;;;;;;10535320;28;20521;-59
2022/05/20 01:31:41;;;;;;;4.05;2.15;;;19.00;91.10;;;;;;10535818;28;20051;-60
2022/05/20 01:36:42;;;;;;;4.95;2.15;;;18.90;91.10;;;;;;10535636;28;20047;-65
2022/05/20 01:42:11;;;;;;;3.45;2.22;;;18.90;91.00;;;;;;10534293;28;20028;-63
2022/05/20 01:47:47;;;;;;;3.85;2.20;;;18.90;91.00;;;;;;10535391;28;20433;-59
2022/05/20 01:53:02;;;;;;;3.72;2.20;;;18.90;91.00;;;;;;10537686;28;20039;-59
2022/05/20 01:58:06;;;;;;;4.03;2.53;;;18.90;91.00;;;;;;10543299;28;20028;-59
2022/05/20 02:03:12;;;;;;;3.03;2.10;;;18.80;91.00;;;;;;10543030;28;20503;-59
2022/05/20 02:08:19;;;;;;;3.97;2.30;;;18.80;91.00;;;;;;10542700;28;20427;-61
2022/05/20 02:13:21;;;;;;;4.35;2.72;;;18.80;91.00;;;;;;10542456;28;20052;-59
2022/05/20 02:18:34;;;;;;;3.35;2.15;;;18.70;91.00;;;;;;10542414;28;20040;-59
2022/05/20 02:23:44;;;;;;;4.47;2.33;;;18.70;90.90;;;;;;10542083;28;20078;-60
2022/05/20 02:29:00;;;;;;;3.63;2.70;;;18.70;90.90;;;;;;10541664;28;20105;-58
2022/05/20 02:34:01;;;;;;;3.63;2.22;;;18.70;90.90;;;;;;10541463;28;20036;-59
2022/05/20 02:39:07;;;;;;;2.50;2.22;;;18.60;90.90;;;;;;10541756;28;20123;-59
2022/05/20 02:44:07;;;;;;;5.10;2.75;;;18.60;90.90;;;;;;10541178;28;20032;-62
2022/05/20 02:49:08;;;;;;;5.72;2.60;;;18.50;90.90;;;;;;10540993;28;20028;-61
2022/05/20 02:54:09;;;;;;;5.75;2.35;;;18.50;90.90;;;;;;10540816;28;20051;-59
2022/05/20 03:04:29;;;;;;;3.85;2.50;;;18.50;90.80;;;;;;10540152;28;20054;-61
2022/05/20 03:09:30;;;;;;;3.95;2.55;;;18.40;90.80;;;;;;10540346;28;20047;-60
2022/05/20 03:14:31;;;;;;;4.90;2.22;;;18.40;90.80;;;;;;10539838;28;20044;-59
2022/05/20 03:19:32;;;;;;;3.38;2.30;;;18.40;90.70;;;;;;10539913;28;20024;-59
2022/05/20 03:24:34;;;;;;;3.78;3.00;;;18.30;90.70;;;;;;10539652;28;20048;-61
2022/05/20 03:29:34;;;;;;;4.93;2.60;;;18.30;90.70;;;;;;10539167;28;20466;-65
2022/05/20 03:34:35;;;;;;;4.55;2.45;;;18.30;90.60;;;;;;10539167;28;20056;-61
2022/05/20 03:39:36;;;;;;;3.05;2.42;;;18.20;90.60;;;;;;10539069;28;20101;-59
2022/05/20 03:44:36;;;;;;;4.55;2.60;;;18.20;90.60;;;;;;10538912;28;20036;-59
2022/05/20 03:49:37;;;;;;;3.05;2.45;;;18.20;90.50;;;;;;10539273;28;20531;-60
2022/05/20 03:54:38;;;;;;;3.28;2.58;;;18.10;90.50;;;;;;10538948;28;20055;-65
2022/05/20 03:59:39;;;;;;;3.35;2.33;;;18.20;90.40;;;;;;10538795;28;20041;-61
2022/05/20 04:04:41;;;;;;;4.15;2.63;;;18.10;90.40;;;;;;10538207;28;20488;-59
2022/05/20 04:09:42;;;;;;;4.13;2.40;;;18.10;90.30;;;;;;10538056;28;20488;-60
2022/05/20 04:14:43;;;;;;;2.63;2.22;;;18.10;90.30;;;;;;10537159;28;20044;-64
2022/05/20 04:19:44;;;;;;;3.58;2.40;;;18.10;90.30;;;;;;10537559;28;20473;-59
2022/05/20 04:24:45;;;;;;;4.53;2.70;;;18.00;90.30;;;;;;10537395;28;20074;-60
2022/05/20 04:29:45;;;;;;;3.35;2.20;;;18.00;90.20;;;;;;10537061;28;20143;-60
2022/05/20 04:34:47;;;;;;;3.33;2.38;;;18.00;90.20;;;;;;10518738;28;20139;-59
2022/05/20 04:39:47;;;;;;;3.83;2.20;;;18.00;90.10;;;;;;10537199;28;20134;-62
2022/05/20 04:50:08;;;;;;;2.28;2.00;;;17.90;90.10;;;;;;10537060;28;20036;-61
2022/05/20 04:55:09;;;;;;;4.78;2.83;;;17.90;90.10;;;;;;10536268;28;20032;-60
2022/05/20 05:00:19;;;;;;;2.50;2.10;;;17.90;90.10;;;;;;10536421;28;20036;-66
2022/05/20 05:05:25;;;;;;;2.78;2.00;;;17.90;90.00;;;;;;10536393;28;20052;-66
2022/05/20 05:10:28;;;;;;;2.10;1.83;;;17.90;90.00;;;;;;10536322;28;20029;-60
2022/05/20 05:15:29;;;;;;;2.47;1.77;;;17.90;90.00;;;;;;10536055;28;20119;-62
2022/05/20 05:20:32;;;;;;;2.10;1.90;;;17.90;90.00;;;;;;10535726;28;20115;-60
2022/05/20 05:25:34;;;;;;;2.42;1.90;;;17.90;90.00;;;;;;10535963;28;20066;-59
2022/05/20 05:30:35;;;;;;;2.45;1.98;;;17.80;90.00;;;;;;10542675;28;20044;-59
2022/05/20 05:35:36;;;;;;;3.05;1.90;;;17.90;90.00;;;;;;10544179;28;20036;-60
2022/05/20 05:40:38;;;;;;;2.75;2.17;;;17.80;89.90;;;;;;10544066;28;20036;-61
2022/05/20 05:45:39;;;;;;;2.75;2.13;;;17.90;89.80;;;;;;10543647;28;20484;-61
2022/05/20 05:50:41;;;;;;;3.60;2.17;;;17.90;89.80;;;;;;10543862;28;20123;-59
2022/05/20 05:55:44;;;;;;;4.15;2.10;;;17.90;89.70;;;;;;10543291;28;20149;-60
2022/05/20 06:00:45;;;;;;;2.80;2.05;;;17.90;89.70;;;;;;10542953;28;20093;-61
2022/05/20 06:05:46;;;;;;;2.58;2.00;;;17.90;89.70;;;;;;10541771;28;20537;-59
2022/05/20 06:10:47;;;;;;;3.78;2.22;;;17.90;89.70;;;;;;10542587;28;20105;-60
2022/05/20 06:15:48;;;;;;;3.97;2.30;;;17.90;89.70;;;;;;10542656;28;20403;-60
2022/05/20 06:20:49;;;;;;;3.90;2.28;;;17.90;89.70;;;;;;10542258;28;20044;-64
2022/05/20 06:25:51;;;;;;;4.13;2.20;;;17.90;89.70;;;;;;10539713;28;20134;-60
2022/05/20 06:30:52;;;;;;;3.75;2.42;;;17.90;89.60;;;;;;10541771;28;20043;-64
2022/05/20 06:41:12;;;;;;;4.93;2.80;;;18.00;89.60;;;;;;10540871;28;20562;-62
2022/05/20 06:46:13;;;;;;;4.93;2.85;;;18.00;89.50;;;;;;10540784;28;20032;-60
2022/05/20 06:51:19;;;;;;;3.72;2.60;;;18.00;89.40;;;;;;10541148;28;20040;-66
2022/05/20 06:56:22;;;;;;;4.18;2.75;;;18.00;89.40;;;;;;10540930;28;20378;-60
2022/05/20 07:01:22;;;;;;;4.18;2.38;;;18.00;89.30;;;;;;10540656;28;20062;-60
2022/05/20 07:06:25;;;;;;;3.58;2.47;;;18.00;89.20;;;;;;10540240;28;20468;-60
2022/05/20 07:11:26;;;;;;;4.30;2.20;;;18.00;89.10;;;;;;10540047;28;20093;-66
2022/05/20 07:16:29;;;;;;;3.10;2.50;;;18.10;89.20;;;;;;10539663;28;20052;-72
2022/05/20 07:21:30;;;;;;;3.15;2.60;;;18.10;89.10;;;;;;10539446;28;20119;-61
2022/05/20 07:26:32;;;;;;;4.50;2.70;;;18.10;89.00;;;;;;10538030;28;20130;-71
2022/05/20 07:31:32;;;;;;;3.30;2.30;;;18.10;89.00;;;;;;10539115;28;20024;-66
2022/05/20 07:36:33;;;;;;;5.90;3.00;;;18.10;88.90;;;;;;10538864;28;20424;-65
2022/05/20 07:41:35;;;;;;;3.00;2.70;;;18.10;88.90;;;;;;10538756;28;20118;-63
2022/05/20 07:46:35;;;;;;;3.38;2.72;;;18.10;88.80;;;;;;10538335;28;20070;-61
2022/05/20 07:51:40;;;;;;;4.55;2.50;;;18.20;88.80;;;;;;10537458;28;20040;-61
2022/05/20 07:56:49;;;;;;;4.55;2.90;;;18.20;88.70;;;;;;10537908;28;20416;-67
2022/05/20 08:01:51;;;;;;;4.88;2.75;;;18.20;88.50;;;;;;10538003;28;20491;-70
2022/05/20 08:06:52;;;;;;;5.22;2.85;;;18.30;88.40;;;;;;10537985;28;20040;-58
2022/05/20 08:11:52;;;;;;;8.02;4.32;;;18.30;88.30;;;;;;10537634;28;20320;-77
2022/05/20 08:16:55;;;;;;;5.70;3.63;;;18.30;88.40;;;;;;10537545;28;20056;-63
2022/05/20 08:21:56;;;;;;;4.50;3.60;;;18.30;88.50;;;;;;10535373;28;20078;-62
2022/05/20 08:26:58;;;;;;;4.65;3.33;;;18.30;88.70;;;;;;10535649;28;20460;-61
2022/05/20 08:31:59;;;;;;;5.55;3.05;;;18.20;88.50;;;;;;10535460;28;20143;-65
2022/05/20 08:36:59;;;;;;;5.90;3.65;;;18.30;88.40;;;;;;10535096;28;20123;-59
2022/05/20 08:42:00;;;;;;;4.28;3.13;;;18.40;88.30;;;;;;10533729;28;20051;-63
2022/05/20 08:47:26;;;;;;;7.72;3.40;;;18.50;88.10;;;;;;10535015;28;20435;-62
2022/05/20 08:52:28;;;;;;;4.72;3.20;;;18.50;87.90;;;;;;10534455;28;20115;-63
2022/05/20 08:57:34;;;;;;;4.82;2.95;;;18.50;87.90;;;;;;10534721;28;20044;-62
2022/05/20 09:02:35;;;;;;;7.20;3.63;;;18.60;87.80;;;;;;10534247;28;20043;-62
2022/05/20 09:07:54;;;;;;;5.22;3.53;;;18.60;87.70;;;;;;10534664;28;20250;-63
2022/05/20 09:13:05;;;;;;;4.20;2.88;;;18.70;87.60;;;;;;10534154;28;20841;-61
2022/05/20 09:18:11;;;;;;;3.97;3.13;;;18.70;87.40;;;;;;10534183;28;20028;-61
2022/05/20 09:23:15;;;;;;;4.90;2.90;;;18.70;87.30;;;;;;10534095;28;20036;-60
2022/05/20 09:28:30;;;;;;;3.10;2.50;;;18.80;87.20;;;;;;10533975;28;20462;-62
2022/05/20 09:33:34;;;;;;;3.45;2.92;;;18.80;87.60;;;;;;10533483;28;20044;-63
2022/05/20 09:38:41;;;;;;;4.95;2.83;;;18.90;87.00;;;;;;10534673;28;20108;-63
2022/05/20 09:43:58;;;;;;;15.10;3.85;;;18.90;86.90;;;;;;10535203;28;20043;-60
2022/05/20 09:49:16;;;;;;;4.55;3.00;;;18.90;86.90;;;;;;10535219;28;20093;-61
2022/05/20 09:54:22;;;;;;;6.22;3.20;;;18.90;86.90;;;;;;10534801;28;20036;-63
2022/05/20 09:59:39;;;;;;;8.63;4.20;;;18.90;86.90;;;;;;10534663;28;20086;-69
2022/05/20 10:05:07;;;;;;;9.30;5.13;;;19.00;86.40;;;;;;10535021;28;20028;-64
2022/05/20 10:10:15;;;;;;;10.63;5.90;;;18.90;85.50;;;;;;10534578;28;20103;-65
2022/05/20 10:15:20;;;;;;;7.82;4.97;;;18.80;85.00;;;;;;10538928;28;20052;-68
2022/05/20 10:20:46;;;;;;;12.20;5.88;;;18.90;85.20;;;;;;10542007;28;20028;-67
2022/05/20 10:26:02;;;;;;;9.63;5.90;;;18.90;83.90;;;;;;10541060;28;20032;-66
2022/05/20 10:36:38;;;;;;;9.57;6.35;;;18.80;85.40;;;;;;10499322;28;20091;-60
2022/05/20 10:42:04;;;;;;;7.85;5.60;;;19.00;85.00;;;;;;10499886;28;20082;-60
2022/05/20 10:52:42;;;;;;;9.98;4.75;;;19.20;83.70;;;;;;10499496;28;20041;-72
2022/05/20 10:58:14;;;;;;;8.95;6.35;;;19.40;82.60;;;;;;10499613;28;20507;-74
2022/05/20 11:03:32;;;;;;;10.10;6.80;;;19.50;81.40;;;;;;10500119;28;20036;-73
2022/05/20 11:08:39;;;;;;;11.05;6.10;;;19.40;82.10;;;;;;10481111;28;20524;-60
2022/05/20 11:13:58;;;;;;;9.32;5.93;;;19.50;82.00;;;;;;10498347;28;20448;-65
2022/05/20 11:19:22;;;;;;;8.63;5.80;;;19.70;81.80;;;;;;10499051;28;20381;-80
2022/05/20 11:24:42;;;;;;;7.95;4.72;;;19.80;80.30;;;;;;10498208;28;20366;-64
2022/05/20 11:29:53;;;;;;;7.50;5.00;;;19.90;80.00;;;;;;10530658;28;20407;-80
2022/05/20 11:35:05;;;;;;;8.10;5.20;;;19.90;78.30;;;;;;10542408;28;20047;-80
2022/05/20 11:40:31;;;;;;;9.77;6.22;;;19.80;77.50;;;;;;10539565;28;20063;-73
2022/05/20 11:46:04;;;;;;;8.30;5.60;;;19.80;78.40;;;;;;10538780;28;20056;-70
2022/05/20 11:51:45;;;;;;;9.57;6.28;;;19.80;78.40;;;;;;10518890;28;20036;-71
2022/05/20 11:56:54;;;;;;;11.10;6.30;;;19.80;78.50;;;;;;10538705;28;20550;-75
2022/05/20 12:01:58;;;;;;;9.50;5.75;;;19.90;79.00;;;;;;10540081;28;20032;-60
2022/05/20 12:07:01;;;;;;;10.13;5.90;;;19.80;78.40;;;;;;10539357;28;20027;-63
2022/05/20 12:12:16;;;;;;;9.68;6.32;;;19.70;78.60;;;;;;10537614;28;20032;-62
2022/05/20 12:17:28;;;;;;;8.45;5.68;;;19.70;78.10;;;;;;10537690;28;20051;-61
2022/05/20 12:28:02;;;;;;;8.88;5.85;;;19.70;77.70;;;;;;10536749;28;20326;-68
2022/05/20 12:33:20;;;;;;;9.10;5.38;;;19.70;77.00;;;;;;10537112;28;20132;-64
2022/05/20 12:38:22;;;;;;;;;;;19.80;76.00;;;;;;10537371;28;20108;-70
2022/05/20 12:43:46;;;;;;;10.13;5.20;;;19.80;74.90;;;;;;10537017;28;20378;-64
2022/05/20 12:48:48;;;;;;;13.43;4.93;;;19.70;75.60;;;;;;10536550;28;20075;-65
2022/05/20 12:53:48;;;;;;;6.75;4.05;;;19.60;76.20;;;;;;10535874;28;20125;-67
2022/05/20 12:58:49;;;;;;;7.25;4.55;;;19.50;76.10;;;;;;10535986;28;20105;-67
2022/05/20 13:03:51;;;;;;;11.15;5.38;;;19.40;76.50;;;;;;10535616;28;20036;-59
2022/05/20 13:09:02;;;;;;;10.85;5.78;;;19.30;75.50;;;;;;10536159;28;20056;-63
2022/05/20 13:14:03;;;;;;;8.45;5.82;;;19.00;75.20;;;;;;10535486;28;20112;-60
2022/05/20 13:19:09;;;;;;;9.55;6.22;;;18.90;76.20;;;;;;10536511;28;20028;-70
2022/05/20 13:24:32;;;;;;;8.93;5.78;;;18.80;76.70;;;;;;10536603;28;20032;-64
2022/05/20 13:29:34;;;;;;;9.38;5.35;;;18.70;77.40;;;;;;10535606;28;20051;-66
2022/05/20 13:34:35;;;;;;;19.33;5.63;;;18.80;78.20;;;;;;10535739;28;20466;-61
2022/05/20 13:39:36;;;;;;;13.48;5.70;;;18.90;78.70;;;;;;10535359;28;20062;-58
2022/05/20 13:44:40;;;;;;;8.82;4.10;;;18.90;79.20;;;;;;10534671;28;20048;-59
2022/05/20 13:49:41;;;;;;;9.48;4.20;;;19.00;79.70;;;;;;10538322;28;20032;-57
2022/05/20 13:54:46;;;;;;;8.52;4.28;;;19.00;80.10;;;;;;10543041;28;20044;-62
2022/05/20 13:59:52;;;;;;;7.43;3.83;;;19.00;80.60;;;;;;10542854;28;20101;-62
2022/05/20 14:04:55;;;;;;;11.60;5.75;;;19.00;80.80;;;;;;10542741;28;20480;-57
2022/05/20 14:10:22;;;;;;;8.75;3.85;;;19.00;81.40;;;;;;10542442;28;20111;-62
2022/05/20 14:15:51;;;;;;;7.25;3.95;;;19.00;82.40;;;;;;10538759;28;20384;-61
2022/05/20 14:21:17;;;;;;;8.93;3.78;;;19.00;82.50;;;;;;10542347;28;20028;-62
2022/05/20 14:26:21;;;;;;;8.02;3.35;;;19.00;83.20;;;;;;10541708;28;20048;-62
2022/05/20 14:31:25;;;;;;;8.73;3.47;;;19.00;83.20;;;;;;10541916;28;20040;-61
2022/05/20 14:36:28;;;;;;;10.18;3.72;;;19.00;83.40;;;;;;10541400;28;20043;-57
2022/05/20 14:41:30;;;;;;;6.80;3.90;;;18.90;83.60;;;;;;10541420;28;20032;-64
2022/05/20 14:51:57;;;;;;;4.90;2.90;;;18.90;84.10;;;;;;10540966;28;20129;-59
2022/05/20 14:57:16;;;;;;;6.57;3.90;;;18.90;84.30;;;;;;10540756;28;20078;-58
2022/05/20 15:02:17;;;;;;;5.45;3.60;;;18.90;85.30;;;;;;10540023;28;20028;-62
2022/05/20 15:07:18;;;;;;;6.10;3.33;;;18.80;85.10;;;;;;10540236;28;20461;-60
2022/05/20 15:12:19;;;;;;;8.80;3.78;;;18.80;85.70;;;;;;10539770;28;20040;-59
2022/05/20 15:17:20;;;;;;;4.78;3.40;;;18.80;86.10;;;;;;10539029;28;20452;-59
2022/05/20 15:22:20;;;;;;;5.90;3.38;;;18.70;86.40;;;;;;10539085;28;20512;-58
2022/05/20 15:27:24;;;;;;;5.20;3.10;;;18.70;86.80;;;;;;10539397;28;20056;-58
2022/05/20 15:37:44;;;;;;;6.78;3.53;;;18.60;87.30;;;;;;10539125;28;20040;-59
2022/05/20 15:42:45;;;;;;;7.35;3.35;;;18.60;87.50;;;;;;10538315;28;20032;-60
2022/05/20 15:47:47;;;;;;;6.82;3.95;;;18.60;87.80;;;;;;10537980;28;20052;-59
2022/05/20 15:53:04;;;;;;;8.75;5.05;;;18.60;87.90;;;;;;10538512;28;20044;-62
2022/05/20 15:58:24;;;;;;;11.80;5.07;;;18.30;89.70;;;;;;10538213;28;20453;-63
2022/05/20 16:03:25;;;;;;;11.00;4.85;;;18.20;90.40;;;;;;10538150;28;20036;-61
2022/05/20 16:08:27;;;;;;;7.15;4.18;;;18.20;90.20;;;;;;10537976;28;20036;-61
2022/05/20 16:13:27;;;;;;;6.22;4.20;;;18.20;90.20;;;;;;10537240;28;20044;-62
2022/05/20 16:18:28;;;;;;;11.57;4.13;;;18.30;90.50;;;;;;10537066;28;20032;-60
2022/05/20 16:23:35;;;;;;;5.00;3.58;;;18.20;90.50;;;;;;10537534;28;20043;-60
2022/05/20 16:28:36;;;;;;;6.88;3.60;;;18.20;90.60;;;;;;10537233;28;20117;-61
2022/05/20 16:33:36;;;;;;;6.55;3.63;;;18.20;90.60;;;;;;10536670;28;20450;-61
2022/05/20 16:38:38;;;;;;;15.52;4.68;;;18.20;90.70;;;;;;10536827;28;20123;-61
2022/05/20 16:43:40;;;;;;;11.38;3.85;;;18.20;90.90;;;;;;10536564;28;20092;-59
2022/05/20 16:48:51;;;;;;;10.30;4.78;;;18.20;90.90;;;;;;10535429;28;20450;-60
2022/05/20 16:53:56;;;;;;;8.27;3.95;;;18.20;91.00;;;;;;10533971;28;20040;-61
2022/05/20 17:04:18;;;;;;;6.90;3.50;;;18.20;91.10;;;;;;10534670;28;20036;-67
2022/05/20 17:09:19;;;;;;;4.88;3.33;;;18.20;91.20;;;;;;10533430;28;20090;-69
2022/05/20 17:14:21;;;;;;;4.03;2.97;;;18.10;91.00;;;;;;10534335;28;20071;-60
2022/05/20 17:19:22;;;;;;;5.75;3.58;;;18.10;91.00;;;;;;10534192;28;20036;-64
2022/05/20 17:24:25;;;;;;;7.03;2.95;;;18.00;91.00;;;;;;10539066;28;20036;-61
2022/05/20 17:29:29;;;;;;;5.30;2.92;;;18.20;91.00;;;;;;10542488;28;20044;-61
2022/05/20 17:34:31;;;;;;;4.85;3.00;;;18.20;90.90;;;;;;10541758;28;20044;-61
2022/05/20 17:39:33;;;;;;;4.35;2.70;;;18.20;90.90;;;;;;10543908;28;20032;-62
2022/05/20 17:44:36;;;;;;;4.00;3.05;;;18.20;90.80;;;;;;10543730;28;20396;-61
2022/05/20 17:49:39;;;;;;;4.38;2.80;;;18.20;90.80;;;;;;10543260;28;20569;-62
2022/05/20 17:54:40;;;;;;;4.65;2.60;;;18.20;90.70;;;;;;10543137;28;20052;-61
2022/05/20 17:59:41;;;;;;;4.25;2.72;;;18.20;90.80;;;;;;10543388;28;20028;-65
2022/05/20 18:04:42;;;;;;;3.60;2.30;;;18.10;90.70;;;;;;10542527;28;20392;-63
2022/05/20 18:09:44;;;;;;;4.50;2.90;;;18.10;90.70;;;;;;10542785;28;20497;-63
2022/05/20 18:14:47;;;;;;;3.67;2.80;;;18.10;90.80;;;;;;10542250;28;20052;-61
2022/05/20 18:19:47;;;;;;;5.03;2.60;;;18.10;90.80;;;;;;10542076;28;20028;-64
2022/05/20 18:24:51;;;;;;;4.35;2.60;;;18.10;90.80;;;;;;10541320;28;20720;-64
2022/05/20 18:29:52;;;;;;;4.05;2.55;;;18.00;90.80;;;;;;10541334;28;20407;-63
2022/05/20 18:40:13;;;;;;;4.38;2.80;;;18.00;90.80;;;;;;10541221;28;20035;-64
2022/05/20 18:45:16;;;;;;;3.58;2.20;;;17.90;90.80;;;;;;10541174;28;20039;-62
2022/05/20 18:50:19;;;;;;;2.30;2.00;;;17.90;90.90;;;;;;10540687;28;20024;-60
2022/05/20 18:55:21;;;;;;;3.85;2.40;;;17.90;90.90;;;;;;10540478;28;20032;-59
2022/05/20 19:00:28;;;;;;;2.17;1.92;;;17.90;90.90;;;;;;10540293;28;20028;-59
2022/05/20 19:05:29;;;;;;;3.05;2.25;;;17.90;90.90;;;;;;10540136;28;20032;-59
2022/05/20 19:10:30;;;;;;;4.22;2.40;;;17.80;90.90;;;;;;10540215;28;20050;-58
2022/05/20 19:15:30;;;;;;;3.25;2.33;;;17.80;90.90;;;;;;10539821;28;20097;-65
2022/05/20 19:20:31;;;;;;;3.90;2.50;;;17.80;91.00;;;;;;10539875;28;20115;-61
2022/05/20 19:25:32;;;;;;;2.28;1.80;;;17.80;91.00;;;;;;10539353;28;20039;-59
2022/05/20 19:30:32;;;;;;;3.08;1.83;;;17.70;91.00;;;;;;10536903;28;20142;-62
2022/05/20 19:35:34;;;;;;;3.72;1.90;;;17.70;91.00;;;;;;10539016;28;20063;-60
2022/05/20 19:40:34;;;;;;;2.90;1.65;;;17.70;91.10;;;;;;10539160;28;20024;-64
2022/05/20 19:45:35;;;;;;;2.38;1.60;;;17.70;91.10;;;;;;10537584;28;20032;-62
2022/05/20 19:50:36;;;;;;;3.17;1.70;;;17.70;91.10;;;;;;10538619;28;20044;-63
2022/05/20 19:55:38;;;;;;;3.47;1.60;;;17.70;91.10;;;;;;10538279;28;20059;-60
2022/05/20 20:00:42;;;;;;;2.80;1.50;;;17.60;91.10;;;;;;10538107;28;20024;-61
2022/05/20 20:05:45;;;;;;;2.03;1.08;;;17.60;91.10;;;;;;10537902;28;20047;-73
2022/05/20 20:10:47;;;;;;;195.10;31.40;;;17.60;91.20;;;;;;10537891;28;20052;-62
2022/05/20 20:15:50;;;;;;;203.27;32.40;;;17.70;91.40;;;;;;10537167;28;20056;-61
2022/05/20 20:20:52;;;;;;;154.80;26.75;;;17.60;91.30;;;;;;10537381;28;20021;-61
2022/05/20 20:26:06;;;;;;;143.68;23.40;;;17.60;91.30;;;;;;10536961;28;20404;-63
2022/05/20 20:31:11;;;;;;;121.15;20.83;;;17.60;91.30;;;;;;10536859;28;20055;-63
2022/05/20 20:36:12;;;;;;;102.55;18.02;;;17.60;91.40;;;;;;10536781;28;20032;-61
2022/05/20 20:41:13;;;;;;;93.47;17.55;;;17.50;91.30;;;;;;10536417;28;20025;-63
2022/05/20 20:46:14;;;;;;;81.65;15.82;;;17.50;91.30;;;;;;10536570;28;20096;-64
2022/05/20 20:51:14;;;;;;;74.68;15.13;;;17.50;91.60;;;;;;10536164;28;20036;-63
2022/05/20 20:56:15;;;;;;;62.20;13.20;;;17.50;91.30;;;;;;10536171;28;20059;-63
2022/05/20 21:01:16;;;;;;;55.25;10.98;;;17.40;91.30;;;;;;10536565;28;20539;-66
2022/05/20 21:06:17;;;;;;;60.22;11.57;;;17.40;91.30;;;;;;10535766;28;20396;-60
2022/05/20 21:11:19;;;;;;;53.75;11.27;;;17.40;91.30;;;;;;10536057;28;20481;-60
2022/05/20 21:16:20;;;;;;;56.17;12.55;;;17.40;91.30;;;;;;10535537;28;20164;-60
2022/05/20 21:21:20;;;;;;;44.17;9.05;;;17.40;91.30;;;;;;10535647;28;20119;-64
2022/05/20 21:26:21;;;;;;;35.17;8.98;;;17.30;91.30;;;;;;10534081;28;20123;-64
2022/05/20 21:31:22;;;;;;;32.33;7.45;;;17.30;91.30;;;;;;10534388;28;20052;-60
2022/05/20 21:36:23;;;;;;;36.75;8.75;;;17.30;91.30;;;;;;10535344;28;20076;-60
2022/05/20 21:41:23;;;;;;;34.47;6.68;;;17.30;91.30;;;;;;10535297;28;20024;-59
2022/05/20 21:51:44;;;;;;;25.77;5.55;;;17.20;91.30;;;;;;10534885;28;20062;-59
2022/05/20 21:56:45;;;;;;;20.10;5.18;;;17.20;91.20;;;;;;10535139;28;20078;-64
2022/05/20 22:12:26;;;;;;;16.05;3.83;;;17.10;91.20;;;;;;10541113;28;20089;-60
2022/05/20 22:17:27;;;;;;;12.00;3.75;;;17.10;91.20;;;;;;10542373;28;20044;-62
2022/05/20 22:22:28;;;;;;;13.30;3.70;;;17.10;91.20;;;;;;10542884;28;20427;-64
2022/05/20 22:27:31;;;;;;;12.02;3.60;;;17.10;91.20;;;;;;10541932;28;20120;-60
2022/05/20 22:32:33;;;;;;;9.30;2.80;;;17.10;91.20;;;;;;10541777;28;20036;-61
2022/05/20 22:37:37;;;;;;;9.40;3.38;;;17.00;91.20;;;;;;10541617;28;20135;-60
2022/05/20 22:42:38;;;;;;;8.18;2.47;;;16.80;91.10;;;;;;10541352;28;20024;-62
2022/05/20 22:47:39;;;;;;;6.15;1.83;;;17.00;91.10;;;;;;10541575;28;20028;-63
2022/05/20 22:52:40;;;;;;;9.93;2.50;;;17.00;91.10;;;;;;10541063;28;20040;-60
2022/05/20 22:57:43;;;;;;;6.05;2.33;;;16.90;91.10;;;;;;10541157;28;20048;-62
2022/05/20 23:02:44;;;;;;;7.35;2.47;;;16.90;91.10;;;;;;10540681;28;20032;-61
2022/05/20 23:07:45;;;;;;;4.53;1.88;;;16.90;91.10;;;;;;10540539;28;20033;-62
2022/05/20 23:12:45;;;;;;;5.95;2.05;;;16.90;91.10;;;;;;10540896;28;20228;-61
2022/05/20 23:17:46;;;;;;;7.03;1.88;;;16.90;91.10;;;;;;10521807;28;20055;-60
2022/05/20 23:22:47;;;;;;;3.53;1.73;;;16.80;91.00;;;;;;10539857;28;20392;-60
2022/05/20 23:27:47;;;;;;;7.20;2.13;;;16.80;91.00;;;;;;10539642;28;20091;-61
2022/05/20 23:32:48;;;;;;;5.10;2.00;;;16.80;91.00;;;;;;10539366;28;20047;-59
2022/05/20 23:37:48;;;;;;;4.97;1.90;;;16.80;91.00;;;;;;10539481;28;20139;-60
2022/05/20 23:42:51;;;;;;;5.15;2.10;;;16.80;91.00;;;;;;10539248;28;20040;-60
2022/05/20 23:47:52;;;;;;;4.90;1.88;;;16.70;91.00;;;;;;10538994;28;20032;-59
2022/05/20 23:52:52;;;;;;;6.20;2.17;;;16.70;91.00;;;;;;10538710;28;20101;-60
2022/05/20 23:57:54;;;;;;;4.35;2.08;;;16.70;91.00;;;;;;10538668;28;20078;-59
